createdAt,value
2022-12-29T00:04:54.837Z,95474.09
2022-12-29T00:10:08.550Z,95470.88
2022-12-29T00:15:29.197Z,95463.25
2022-12-29T00:20:49.718Z,95458.91
2022-12-29T00:26:10.262Z,95448.13
2022-12-29T00:31:32.390Z,95453.78
2022-12-29T00:36:36.115Z,95454.44
2022-12-29T00:41:56.859Z,95450.41
2022-12-29T00:47:03.405Z,95457.31
2022-12-29T00:52:07.058Z,95449.38
2022-12-29T00:57:12.671Z,95450.91
2022-12-29T01:02:15.865Z,95461.69
2022-12-29T01:07:24.907Z,95457.13
2022-12-29T01:17:54.272Z,95460.13
2022-12-29T01:22:56.900Z,95458.81
2022-12-29T01:27:59.532Z,95463.09
2022-12-29T01:33:02.142Z,95467.56
2022-12-29T01:38:05.129Z,95465.97
2022-12-29T01:43:08.148Z,95462.72
2022-12-29T01:48:18.372Z,95461.09
2022-12-29T01:53:21.076Z,95465.84
2022-12-29T01:58:23.740Z,95469.19
2022-12-29T02:03:27.389Z,95449.72
2022-12-29T02:08:30.111Z,95448.28
2022-12-29T02:13:34.480Z,95444.66
2022-12-29T02:18:42.662Z,95442.50
2022-12-29T02:23:45.333Z,95435.88
2022-12-29T02:28:47.993Z,95449.94
2022-12-29T02:33:50.606Z,95442.28
2022-12-29T02:38:53.152Z,95448.16
2022-12-29T02:43:55.820Z,95431.97
2022-12-29T02:49:02.707Z,95433.56
2022-12-29T02:54:22.954Z,95438.34
2022-12-29T02:59:26.007Z,95424.31
2022-12-29T03:04:30.533Z,95418.13
2022-12-29T03:09:33.160Z,95410.63
2022-12-29T03:14:54.345Z,95406.63
2022-12-29T03:19:56.989Z,95402.03
2022-12-29T03:24:59.650Z,95399.56
2022-12-29T03:30:02.236Z,95400.00
2022-12-29T03:35:04.893Z,95392.69
2022-12-29T03:40:07.571Z,95389.44
2022-12-29T03:45:10.189Z,95388.72
2022-12-29T03:50:22.781Z,95396.53
2022-12-29T03:55:25.754Z,95392.00
2022-12-29T04:00:29.220Z,95385.66
2022-12-29T04:05:32.286Z,95380.69
2022-12-29T04:10:35.603Z,95385.25
2022-12-29T04:15:46.244Z,95383.66
2022-12-29T04:21:05.070Z,95390.91
2022-12-29T04:26:09.920Z,95390.72
2022-12-29T04:31:12.592Z,95389.13
2022-12-29T04:36:15.585Z,95370.53
2022-12-29T04:41:18.241Z,95377.47
2022-12-29T04:46:20.953Z,95374.78
2022-12-29T04:51:23.616Z,95376.97
2022-12-29T04:56:26.350Z,95384.22
2022-12-29T05:01:29.090Z,95381.78
2022-12-29T05:06:32.025Z,95375.97
2022-12-29T05:11:34.741Z,95382.91
2022-12-29T05:16:37.459Z,95386.94
2022-12-29T05:21:40.263Z,95383.78
2022-12-29T05:26:42.933Z,95385.66
2022-12-29T05:31:45.628Z,95383.53
2022-12-29T05:36:48.213Z,95384.38
2022-12-29T05:41:50.843Z,95384.91
2022-12-29T05:46:53.561Z,95369.75
2022-12-29T05:51:56.191Z,95379.88
2022-12-29T05:56:58.824Z,95376.88
2022-12-29T06:02:05.607Z,95379.25
2022-12-29T06:07:08.271Z,95382.19
2022-12-29T06:12:10.916Z,95376.28
2022-12-29T06:17:13.596Z,95381.28
2022-12-29T06:22:16.188Z,95393.25
2022-12-29T06:27:19.323Z,95395.13
2022-12-29T06:32:21.943Z,95386.03
2022-12-29T06:37:24.536Z,95381.75
2022-12-29T06:42:27.140Z,95378.78
2022-12-29T06:47:29.773Z,95381.44
2022-12-29T06:52:32.560Z,95383.31
2022-12-29T06:57:35.262Z,95375.84
2022-12-29T07:02:38.031Z,95384.31
2022-12-29T07:07:40.825Z,95390.34
2022-12-29T07:12:43.388Z,95408.25
2022-12-29T07:17:50.450Z,95412.09
2022-12-29T07:22:53.055Z,95418.03
2022-12-29T07:27:55.593Z,95419.75
2022-12-29T07:32:58.132Z,95426.09
2022-12-29T07:38:00.755Z,95432.81
2022-12-29T07:43:03.323Z,95437.25
2022-12-29T07:48:08.528Z,95435.44
2022-12-29T07:53:11.120Z,95436.34
2022-12-29T07:58:13.739Z,95425.31
2022-12-29T08:03:18.691Z,95436.34
2022-12-29T08:08:21.389Z,95445.94
2022-12-29T08:13:24.321Z,95431.59
2022-12-29T08:18:27.116Z,95433.00
2022-12-29T08:23:29.775Z,95433.84
2022-12-29T08:28:32.360Z,95423.72
2022-12-29T08:33:34.984Z,95418.97
2022-12-29T08:38:37.687Z,95423.13
2022-12-29T08:43:40.316Z,95431.53
2022-12-29T08:48:46.447Z,95421.63
2022-12-29T08:53:49.321Z,95422.78
2022-12-29T08:58:51.997Z,95434.06
2022-12-29T09:09:18.241Z,95435.22
2022-12-29T09:14:22.378Z,95444.66
2022-12-29T09:19:24.934Z,95452.22
2022-12-29T09:24:27.519Z,95442.34
2022-12-29T09:29:33.055Z,95439.44
2022-12-29T09:34:36.043Z,95437.00
2022-12-29T09:39:38.934Z,95445.78
2022-12-29T09:44:41.822Z,95448.53
2022-12-29T09:49:46.969Z,95440.44
2022-12-29T09:55:00.069Z,95431.31
2022-12-29T10:00:06.190Z,95434.38
2022-12-29T10:05:08.779Z,95418.28
2022-12-29T10:10:11.836Z,95413.47
2022-12-29T10:15:20.486Z,95417.50
2022-12-29T10:20:23.115Z,95417.31
2022-12-29T10:25:31.086Z,95420.94
2022-12-29T10:30:35.439Z,95421.16
2022-12-29T10:35:39.989Z,95412.34
2022-12-29T10:40:42.560Z,95419.03
2022-12-29T10:45:46.212Z,95416.13
2022-12-29T10:50:48.956Z,95408.03
2022-12-29T10:55:51.616Z,95387.41
2022-12-29T11:00:54.769Z,95388.59
2022-12-29T11:05:57.472Z,95373.78
2022-12-29T11:11:00.518Z,95383.81
2022-12-29T11:16:04.045Z,95377.41
2022-12-29T11:21:12.113Z,95366.19
2022-12-29T11:26:15.091Z,95352.31
2022-12-29T11:31:17.873Z,95336.69
2022-12-29T11:36:20.680Z,95347.78
2022-12-29T11:41:23.722Z,95337.84
2022-12-29T11:46:26.816Z,95336.91
2022-12-29T11:51:29.624Z,95335.66
2022-12-29T11:56:36.813Z,95334.06
2022-12-29T12:01:43.040Z,95342.00
2022-12-29T12:06:47.147Z,95342.06
2022-12-29T12:11:49.921Z,95333.44
2022-12-29T12:16:52.577Z,95322.00
2022-12-29T12:21:55.649Z,95323.63
2022-12-29T12:26:58.197Z,95320.41
2022-12-29T12:32:00.771Z,95305.31
2022-12-29T12:37:03.463Z,95303.06
2022-12-29T12:42:06.542Z,95294.94
2022-12-29T12:47:09.161Z,95287.44
2022-12-29T12:52:12.729Z,95304.06
2022-12-29T12:57:15.837Z,95286.06
2022-12-29T13:02:19.212Z,95284.81
2022-12-29T13:07:22.532Z,95284.09
2022-12-29T13:12:26.126Z,95293.69
2022-12-29T13:17:29.290Z,95287.50
2022-12-29T13:22:32.438Z,95288.31
2022-12-29T13:27:45.582Z,95290.59
2022-12-29T13:32:48.776Z,95281.75
2022-12-29T13:37:51.960Z,95285.72
2022-12-29T13:43:00.536Z,95290.59
2022-12-29T13:48:03.670Z,95298.19
2022-12-29T13:53:11.210Z,95297.16
2022-12-29T13:58:14.375Z,95307.50
2022-12-29T14:03:17.671Z,95305.25
2022-12-29T14:08:21.200Z,95298.13
2022-12-29T14:13:24.219Z,95301.22
2022-12-29T14:18:27.414Z,95296.25
2022-12-29T14:23:31.245Z,95293.31
2022-12-29T14:28:34.329Z,95302.69
2022-12-29T14:33:37.582Z,95300.88
2022-12-29T14:38:40.635Z,95304.19
2022-12-29T14:43:43.862Z,95301.69
2022-12-29T14:48:47.056Z,95313.03
2022-12-29T14:53:50.926Z,95326.59
2022-12-29T14:58:54.158Z,95318.91
2022-12-29T15:03:57.332Z,95322.56
2022-12-29T15:09:00.410Z,95329.00
2022-12-29T15:14:03.564Z,95328.56
2022-12-29T15:19:06.736Z,95323.25
2022-12-29T15:24:09.864Z,95326.88
2022-12-29T15:29:13.184Z,95338.06
2022-12-29T15:34:16.321Z,95331.38
2022-12-29T15:39:22.241Z,95332.56
2022-12-29T15:44:45.614Z,95333.09
2022-12-29T15:49:48.676Z,95330.47
2022-12-29T15:54:51.260Z,95330.72
2022-12-29T15:59:54.788Z,95330.16
2022-12-29T16:10:19.978Z,95325.13
2022-12-29T16:15:23.434Z,95343.69
2022-12-29T16:20:26.109Z,95339.94
2022-12-29T16:25:29.062Z,95332.19
2022-12-29T16:30:34.104Z,95335.13
2022-12-29T16:35:37.098Z,95345.00
2022-12-29T16:40:39.663Z,95357.59
2022-12-29T16:45:42.333Z,95352.50
2022-12-29T16:50:44.973Z,95363.03
2022-12-29T16:55:47.598Z,95364.34
2022-12-29T17:00:50.172Z,95365.94
2022-12-29T17:05:57.352Z,95367.31
2022-12-29T17:11:17.805Z,95372.16
2022-12-29T17:16:20.490Z,95365.44
2022-12-29T17:21:23.255Z,95364.13
2022-12-29T17:26:26.179Z,95368.97
2022-12-29T17:31:31.757Z,95355.63
2022-12-29T17:36:34.937Z,95362.53
2022-12-29T17:41:39.418Z,95369.53
2022-12-29T17:46:42.625Z,95361.50
2022-12-29T17:51:45.703Z,95376.47
2022-12-29T17:56:48.818Z,95367.38
2022-12-29T18:01:51.993Z,95363.66
2022-12-29T18:06:55.378Z,95373.00
2022-12-29T18:11:58.583Z,95373.81
2022-12-29T18:17:01.669Z,95376.75
2022-12-29T18:22:04.703Z,95376.47
2022-12-29T18:27:07.333Z,95371.66
2022-12-29T18:32:09.968Z,95364.16
2022-12-29T18:37:14.798Z,95369.00
2022-12-29T18:42:18.437Z,95367.13
2022-12-29T18:47:22.044Z,95369.53
2022-12-29T18:52:24.916Z,95371.94
2022-12-29T18:57:30.624Z,95370.03
2022-12-29T19:02:33.359Z,95364.97
2022-12-29T19:07:35.980Z,95375.16
2022-12-29T19:12:38.548Z,95374.34
2022-12-29T19:17:41.218Z,95381.84
2022-12-29T19:22:44.317Z,95388.53
2022-12-29T19:27:47.939Z,95375.66
2022-12-29T19:32:52.475Z,95380.22
2022-12-29T19:37:55.253Z,95375.41
2022-12-29T19:42:57.988Z,95379.13
2022-12-29T19:48:00.658Z,95379.16
2022-12-29T19:53:05.658Z,95374.31
2022-12-29T19:58:10.552Z,95387.72
2022-12-29T20:03:13.292Z,95394.69
2022-12-29T20:08:16.013Z,95397.09
2022-12-29T20:13:18.640Z,95396.28
2022-12-29T20:18:28.944Z,95402.69
2022-12-29T20:23:32.176Z,95401.56
2022-12-29T20:28:35.344Z,95400.44
2022-12-29T20:33:38.039Z,95387.59
2022-12-29T20:38:40.634Z,95397.50
2022-12-29T20:43:43.228Z,95404.69
2022-12-29T20:48:45.900Z,95403.13
2022-12-29T20:53:48.516Z,95402.03
2022-12-29T21:04:13.757Z,95370.00
2022-12-29T21:09:17.343Z,95370.50
2022-12-29T21:14:20.466Z,95373.72
2022-12-29T21:19:23.198Z,95369.47
2022-12-29T21:24:25.948Z,95365.72
2022-12-29T21:29:29.796Z,95368.94
2022-12-29T21:34:32.789Z,95382.28
2022-12-29T21:39:35.384Z,95378.53
2022-12-29T21:44:55.468Z,95377.50
2022-12-29T21:49:58.218Z,95374.31
2022-12-29T21:55:05.075Z,95369.47
2022-12-29T22:00:25.308Z,95388.44
2022-12-29T22:05:45.655Z,95396.44
2022-12-29T22:11:05.912Z,95409.50
2022-12-29T22:16:08.633Z,95400.09
2022-12-29T22:21:11.590Z,95396.63
2022-12-29T22:26:14.316Z,95407.63
2022-12-29T22:31:17.072Z,95404.16
2022-12-29T22:36:19.877Z,95409.50
2022-12-29T22:41:22.536Z,95431.69
2022-12-29T22:46:25.160Z,95436.22
2022-12-29T22:51:27.757Z,95439.72
2022-12-29T22:56:30.397Z,95446.41
2022-12-29T23:01:33.130Z,95443.53
2022-12-29T23:06:36.052Z,95447.53
2022-12-29T23:11:38.696Z,95464.13
2022-12-29T23:16:41.408Z,95472.94
2022-12-29T23:21:44.025Z,95481.22
2022-12-29T23:26:46.609Z,95475.88
2022-12-29T23:31:49.381Z,95479.69
2022-12-29T23:36:52.065Z,95484.75
2022-12-29T23:41:54.792Z,95484.75
2022-12-29T23:46:57.497Z,95482.34
2022-12-29T23:52:00.129Z,95496.28
2022-12-29T23:57:02.752Z,95499.78
